createdAt,value
2022-10-01T00:01:14.233Z,10.70
2022-10-01T00:03:41.252Z,11.38
2022-10-01T00:06:17.562Z,9.10
2022-10-01T00:08:49.234Z,9.57
2022-10-01T00:11:22.369Z,10.25
2022-10-01T00:13:50.154Z,11.82
2022-10-01T00:16:20.313Z,12.10
2022-10-01T00:18:48.006Z,10.70
2022-10-01T00:21:18.843Z,10.02
2022-10-01T00:23:46.087Z,9.27
2022-10-01T00:26:21.851Z,9.77
2022-10-01T00:28:53.621Z,8.80
2022-10-01T00:31:20.479Z,9.65
2022-10-01T00:33:47.515Z,9.95
2022-10-01T00:36:14.549Z,7.43
2022-10-01T00:38:41.551Z,9.55
2022-10-01T00:41:10.017Z,10.45
2022-10-01T00:43:42.351Z,9.68
2022-10-01T00:46:28.678Z,9.70
2022-10-01T00:49:02.792Z,13.20
2022-10-01T00:51:34.946Z,10.48
2022-10-01T00:54:08.701Z,8.95
2022-10-01T00:56:35.952Z,8.88
2022-10-01T00:59:02.797Z,10.15
2022-10-01T01:01:29.536Z,9.15
2022-10-01T01:03:57.489Z,13.85
2022-10-01T01:06:24.150Z,13.52
2022-10-01T01:08:55.043Z,12.95
2022-10-01T01:11:38.534Z,10.68
2022-10-01T01:14:19.938Z,8.68
2022-10-01T01:16:52.345Z,13.20
2022-10-01T01:19:50.082Z,10.88
2022-10-01T01:22:21.173Z,9.20
2022-10-01T01:25:25.211Z,8.15
2022-10-01T01:28:31.729Z,9.32
2022-10-01T01:31:02.350Z,11.30
2022-10-01T01:33:32.311Z,9.15
2022-10-01T01:36:06.874Z,9.38
2022-10-01T01:38:40.261Z,8.05
2022-10-01T01:41:09.069Z,14.15
2022-10-01T01:43:41.243Z,9.18
2022-10-01T01:46:10.867Z,9.13
2022-10-01T01:48:41.136Z,9.80
2022-10-01T01:51:31.433Z,13.13
2022-10-01T01:53:58.697Z,10.15
2022-10-01T01:56:25.933Z,10.63
2022-10-01T01:58:53.949Z,10.57
2022-10-01T02:01:40.878Z,11.82
2022-10-01T02:04:16.027Z,10.20
2022-10-01T02:07:01.457Z,11.10
2022-10-01T02:09:51.001Z,9.57
2022-10-01T02:12:47.909Z,9.55
2022-10-01T02:15:38.846Z,9.85
2022-10-01T02:18:11.612Z,9.25
2022-10-01T02:20:47.829Z,10.27
2022-10-01T02:23:28.080Z,9.73
2022-10-01T02:26:03.843Z,13.10
2022-10-01T02:28:33.568Z,10.75
2022-10-01T02:31:02.342Z,10.63
2022-10-01T02:33:35.506Z,11.00
2022-10-01T02:36:05.983Z,10.45
2022-10-01T02:38:36.065Z,12.05
2022-10-01T02:41:07.202Z,9.60
2022-10-01T02:43:51.383Z,12.48
2022-10-01T02:46:32.479Z,15.18
2022-10-01T02:49:01.150Z,11.70
2022-10-01T02:51:43.238Z,11.13
2022-10-01T02:54:45.332Z,10.90
2022-10-01T02:57:22.924Z,10.63
2022-10-01T02:59:54.878Z,11.52
2022-10-01T03:02:22.555Z,13.75
2022-10-01T03:04:49.250Z,13.82
2022-10-01T03:07:16.675Z,12.98
2022-10-01T03:09:43.249Z,12.82
2022-10-01T03:12:10.705Z,15.70
2022-10-01T03:14:39.279Z,14.00
2022-10-01T03:17:08.727Z,13.52
2022-10-01T03:19:35.344Z,13.25
2022-10-01T03:22:02.430Z,10.73
2022-10-01T03:24:29.103Z,14.82
2022-10-01T03:26:57.057Z,12.27
2022-10-01T03:29:24.857Z,14.27
2022-10-01T03:31:51.849Z,11.90
2022-10-01T03:34:18.990Z,12.07
2022-10-01T03:36:45.977Z,13.95
2022-10-01T03:39:13.395Z,12.75
2022-10-01T03:41:40.117Z,13.50
2022-10-01T03:44:06.829Z,13.52
2022-10-01T03:46:33.638Z,12.98
2022-10-01T03:49:01.025Z,11.15
2022-10-01T03:51:28.624Z,12.57
2022-10-01T03:53:56.676Z,11.63
2022-10-01T03:56:23.989Z,19.23
2022-10-01T03:58:51.058Z,11.85
2022-10-01T04:01:18.086Z,11.10
2022-10-01T04:03:44.827Z,10.90
2022-10-01T04:06:12.159Z,12.43
2022-10-01T04:08:39.312Z,11.95
2022-10-01T04:11:07.160Z,14.90
2022-10-01T04:13:34.593Z,12.15
2022-10-01T04:16:02.862Z,10.48
2022-10-01T04:18:29.904Z,11.65
2022-10-01T04:20:57.781Z,10.75
2022-10-01T04:23:25.266Z,13.95
2022-10-01T04:25:51.986Z,12.00
2022-10-01T04:28:18.865Z,10.57
2022-10-01T04:30:46.396Z,14.00
2022-10-01T04:33:15.693Z,11.85
2022-10-01T04:35:43.451Z,12.20
2022-10-01T04:38:16.385Z,12.68
2022-10-01T04:40:43.238Z,10.07
2022-10-01T04:43:11.560Z,12.18
2022-10-01T04:45:38.432Z,10.20
2022-10-01T04:48:05.376Z,11.52
2022-10-01T04:50:32.473Z,10.40
2022-10-01T04:52:59.052Z,9.60
2022-10-01T04:55:25.635Z,11.45
2022-10-01T04:57:52.233Z,11.85
2022-10-01T05:00:21.911Z,9.80
2022-10-01T05:02:50.241Z,8.98
2022-10-01T05:05:18.871Z,11.23
2022-10-01T05:07:45.712Z,10.32
2022-10-01T05:10:21.273Z,10.98
2022-10-01T05:12:48.687Z,11.55
2022-10-01T05:15:16.558Z,12.20
2022-10-01T05:17:43.350Z,10.57
2022-10-01T05:20:16.772Z,8.93
2022-10-01T05:22:44.668Z,9.13
2022-10-01T05:25:11.330Z,17.25
2022-10-01T05:27:38.799Z,10.85
2022-10-01T05:30:06.210Z,8.90
2022-10-01T05:32:32.793Z,11.65
2022-10-01T05:34:59.404Z,9.20
2022-10-01T05:37:26.018Z,8.60
2022-10-01T05:39:52.609Z,8.25
2022-10-01T05:42:19.215Z,8.80
2022-10-01T05:44:49.982Z,9.52
2022-10-01T05:47:17.174Z,8.13
2022-10-01T05:49:44.429Z,8.63
2022-10-01T05:52:11.916Z,8.00
2022-10-01T05:54:42.713Z,9.55
2022-10-01T05:57:09.443Z,7.97
2022-10-01T05:59:36.284Z,11.30
2022-10-01T06:02:04.593Z,9.68
2022-10-01T06:04:31.417Z,8.40
2022-10-01T06:06:58.237Z,9.05
2022-10-01T06:09:25.246Z,10.70
2022-10-01T06:11:52.003Z,8.55
2022-10-01T06:14:18.888Z,11.25
2022-10-01T06:16:46.844Z,9.55
2022-10-01T06:19:13.567Z,10.60
2022-10-01T06:21:40.202Z,11.00
2022-10-01T06:24:06.869Z,9.77
2022-10-01T06:26:33.423Z,13.48
2022-10-01T06:28:59.993Z,9.75
2022-10-01T06:31:26.630Z,11.88
2022-10-01T06:33:53.218Z,10.57
2022-10-01T06:36:19.779Z,9.38
2022-10-01T06:38:49.458Z,9.40
2022-10-01T06:41:16.315Z,11.63
2022-10-01T06:43:42.918Z,12.13
2022-10-01T06:46:09.672Z,10.18
2022-10-01T06:48:36.601Z,11.98
2022-10-01T06:51:04.193Z,11.55
2022-10-01T06:53:31.759Z,13.93
2022-10-01T06:56:04.737Z,13.00
2022-10-01T06:58:31.509Z,12.00
2022-10-01T07:01:02.239Z,13.75
2022-10-01T07:03:29.752Z,11.45
2022-10-01T07:06:04.651Z,9.63
2022-10-01T07:08:31.365Z,10.85
2022-10-01T07:11:04.947Z,13.13
2022-10-01T07:13:31.648Z,12.68
2022-10-01T07:15:58.369Z,10.80
2022-10-01T07:18:25.009Z,11.77
2022-10-01T07:20:51.675Z,11.23
2022-10-01T07:23:18.341Z,11.05
2022-10-01T07:25:45.755Z,11.65
2022-10-01T07:28:18.534Z,18.02
2022-10-01T07:30:56.357Z,10.77
2022-10-01T07:33:22.979Z,10.10
2022-10-01T07:35:49.754Z,9.85
2022-10-01T07:38:16.635Z,12.15
2022-10-01T07:40:43.403Z,10.85
2022-10-01T07:43:10.356Z,11.30
2022-10-01T07:45:36.948Z,12.85
2022-10-01T07:48:04.355Z,8.48
2022-10-01T07:50:31.007Z,13.20
2022-10-01T07:52:59.201Z,10.88
2022-10-01T07:55:27.977Z,10.02
2022-10-01T07:57:56.709Z,8.82
2022-10-01T08:00:25.560Z,13.00
2022-10-01T08:02:56.942Z,11.43
2022-10-01T08:05:30.094Z,9.65
2022-10-01T08:08:04.290Z,9.15
2022-10-01T08:10:36.824Z,9.65
2022-10-01T08:13:15.409Z,9.15
2022-10-01T08:15:47.361Z,7.88
2022-10-01T08:18:14.358Z,11.30
2022-10-01T08:20:41.253Z,9.05
2022-10-01T08:23:14.773Z,13.05
2022-10-01T08:25:46.487Z,10.38
2022-10-01T08:28:13.811Z,10.45
2022-10-01T08:33:16.121Z,9.27
2022-10-01T08:35:43.833Z,10.57
2022-10-01T08:38:11.971Z,9.05
2022-10-01T08:40:51.005Z,10.52
2022-10-01T08:43:31.236Z,9.07
2022-10-01T08:46:04.642Z,9.95
2022-10-01T08:48:39.971Z,8.25
2022-10-01T08:51:24.042Z,8.02
2022-10-01T08:54:07.394Z,8.80
2022-10-01T08:56:36.721Z,9.05
2022-10-01T08:59:12.935Z,8.45
2022-10-01T09:01:39.793Z,12.05
2022-10-01T09:04:06.943Z,9.40
2022-10-01T09:06:33.950Z,8.27
2022-10-01T09:09:33.101Z,10.02
2022-10-01T09:12:04.802Z,10.00
2022-10-01T09:14:36.885Z,9.45
2022-10-01T09:17:35.171Z,9.95
2022-10-01T09:20:27.018Z,10.45
2022-10-01T09:23:02.262Z,10.23
2022-10-01T09:25:29.799Z,8.65
2022-10-01T09:28:07.601Z,7.70
2022-10-01T09:30:35.418Z,8.07
2022-10-01T09:33:24.458Z,6.68
2022-10-01T09:36:04.950Z,6.85
2022-10-01T09:38:46.069Z,7.80
2022-10-01T09:41:14.588Z,7.70
2022-10-01T09:43:43.612Z,6.18
2022-10-01T09:46:15.046Z,7.80
2022-10-01T09:48:50.661Z,7.47
2022-10-01T09:51:40.216Z,5.63
2022-10-01T09:54:44.555Z,6.30
2022-10-01T09:57:15.257Z,8.07
2022-10-01T09:59:54.922Z,7.68
2022-10-01T10:02:32.288Z,6.72
2022-10-01T10:05:23.917Z,5.40
2022-10-01T10:07:57.234Z,6.38
2022-10-01T10:10:28.580Z,6.32
2022-10-01T10:12:58.949Z,6.85
2022-10-01T10:15:26.331Z,7.03
2022-10-01T10:17:54.408Z,8.07
2022-10-01T10:20:41.400Z,6.38
2022-10-01T10:23:13.790Z,6.78
2022-10-01T10:25:40.652Z,5.53
2022-10-01T10:28:20.622Z,5.70
2022-10-01T10:30:48.280Z,6.07
2022-10-01T10:33:15.082Z,7.30
2022-10-01T10:35:41.758Z,9.98
2022-10-01T10:38:18.343Z,7.43
2022-10-01T10:40:45.842Z,7.22
2022-10-01T10:43:25.580Z,6.25
2022-10-01T10:45:56.735Z,6.45
2022-10-01T10:48:31.613Z,7.50
2022-10-01T10:51:01.688Z,2.92
2022-10-01T10:53:33.394Z,4.60
2022-10-01T10:56:06.332Z,6.25
2022-10-01T10:58:40.250Z,8.40
2022-10-01T11:01:10.017Z,16.27
2022-10-01T11:03:41.518Z,11.30
2022-10-01T11:06:14.706Z,4.18
2022-10-01T11:08:42.852Z,7.30
2022-10-01T11:11:43.886Z,5.47
2022-10-01T11:14:35.221Z,4.05
2022-10-01T11:17:09.621Z,4.50
2022-10-01T11:19:49.192Z,4.15
2022-10-01T11:22:53.105Z,5.38
2022-10-01T11:25:33.497Z,4.68
2022-10-01T11:28:11.544Z,5.03
2022-10-01T11:30:38.180Z,1.30
2022-10-01T11:33:32.861Z,2.47
2022-10-01T11:36:02.982Z,1.10
2022-10-01T11:38:45.799Z,1.98
2022-10-01T11:41:22.142Z,1.75
2022-10-01T11:44:02.368Z,1.85
2022-10-01T11:47:00.371Z,8.35
2022-10-01T11:49:29.382Z,3.35
2022-10-01T11:52:23.598Z,3.22
2022-10-01T11:55:29.146Z,2.33
2022-10-01T11:58:39.358Z,2.13
2022-10-01T12:01:12.607Z,1.67
2022-10-01T12:03:51.071Z,3.33
2022-10-01T12:06:34.048Z,6.07
2022-10-01T12:09:15.918Z,4.13
2022-10-01T12:11:52.585Z,3.83
2022-10-01T12:14:33.753Z,2.28
2022-10-01T12:17:26.269Z,2.47
2022-10-01T12:19:56.970Z,2.10
2022-10-01T12:22:32.591Z,3.72
2022-10-01T12:24:59.521Z,3.25
2022-10-01T12:27:57.628Z,5.45
2022-10-01T12:30:30.793Z,3.72
2022-10-01T12:33:35.640Z,2.70
2022-10-01T12:36:25.949Z,3.80
2022-10-01T12:39:04.271Z,1.35
2022-10-01T12:41:41.045Z,5.00
2022-10-01T12:47:22.958Z,3.97
2022-10-01T12:50:31.824Z,2.95
2022-10-01T12:53:20.506Z,5.05
2022-10-01T12:56:13.681Z,7.45
2022-10-01T12:59:06.417Z,3.83
2022-10-01T13:01:59.287Z,5.10
2022-10-01T13:04:41.771Z,6.63
2022-10-01T13:07:24.614Z,6.40
2022-10-01T13:10:07.784Z,6.10
2022-10-01T13:12:58.485Z,8.20
2022-10-01T13:15:38.004Z,5.53
2022-10-01T13:18:10.433Z,5.03
2022-10-01T13:20:56.253Z,8.10
2022-10-01T13:23:33.683Z,8.73
2022-10-01T13:26:19.880Z,7.72
2022-10-01T13:28:56.297Z,5.75
2022-10-01T13:31:39.946Z,4.32
2022-10-01T13:34:43.085Z,7.88
2022-10-01T13:37:16.101Z,5.72
2022-10-01T13:39:43.805Z,4.72
2022-10-01T13:42:22.945Z,9.15
2022-10-01T13:45:20.945Z,5.80
2022-10-01T13:47:47.817Z,5.57
2022-10-01T13:50:23.887Z,5.07
2022-10-01T13:52:52.071Z,4.75
2022-10-01T13:55:30.551Z,4.35
2022-10-01T13:58:06.230Z,6.38
2022-10-01T14:00:33.445Z,5.72
2022-10-01T14:03:01.785Z,5.28
2022-10-01T14:05:42.609Z,6.75
2022-10-01T14:08:26.110Z,5.07
2022-10-01T14:11:23.067Z,6.53
2022-10-01T14:14:10.659Z,6.60
2022-10-01T14:16:44.003Z,8.13
2022-10-01T14:19:19.197Z,7.50
2022-10-01T14:22:12.447Z,7.05
2022-10-01T14:25:00.701Z,5.70
2022-10-01T14:27:59.088Z,6.90
2022-10-01T14:30:39.713Z,6.35
2022-10-01T14:33:51.129Z,4.85
2022-10-01T14:36:28.437Z,7.70
2022-10-01T14:39:11.047Z,6.82
2022-10-01T14:41:37.745Z,7.47
2022-10-01T14:44:23.366Z,7.03
2022-10-01T14:46:51.372Z,5.95
2022-10-01T14:49:27.234Z,8.10
2022-10-01T14:52:04.098Z,8.93
2022-10-01T14:57:03.436Z,8.73
2022-10-01T14:59:37.221Z,6.28
2022-10-01T15:05:32.450Z,7.00
2022-10-01T15:08:11.986Z,5.88
2022-10-01T15:10:41.479Z,9.07
2022-10-01T15:13:08.926Z,11.18
2022-10-01T15:15:41.582Z,7.35
2022-10-01T15:18:15.025Z,7.43
2022-10-01T15:21:00.241Z,6.90
2022-10-01T15:23:28.797Z,7.38
2022-10-01T15:25:57.881Z,6.20
2022-10-01T15:28:33.121Z,5.72
2022-10-01T15:31:03.239Z,8.25
2022-10-01T15:33:36.078Z,8.95
2022-10-01T15:36:05.832Z,8.95
2022-10-01T15:38:33.157Z,9.70
2022-10-01T15:41:26.601Z,6.97
2022-10-01T15:43:49.763Z,2.83
2022-10-01T15:46:19.859Z,15.00
2022-10-01T15:48:46.945Z,13.50
2022-10-01T15:51:18.131Z,10.20
2022-10-01T15:53:45.354Z,4.57
2022-10-01T15:56:17.325Z,6.60
2022-10-01T15:59:13.193Z,5.57
2022-10-01T16:01:40.842Z,7.18
2022-10-01T16:04:10.965Z,6.13
2022-10-01T16:06:43.774Z,7.00
2022-10-01T16:09:27.705Z,7.25
2022-10-01T16:11:57.662Z,4.32
2022-10-01T16:14:29.221Z,7.05
2022-10-01T16:17:17.609Z,5.35
2022-10-01T16:19:48.476Z,6.20
2022-10-01T16:22:25.714Z,3.05
2022-10-01T16:25:01.506Z,4.75
2022-10-01T16:27:30.195Z,6.15
2022-10-01T16:30:04.942Z,7.28
2022-10-01T16:32:32.338Z,5.80
2022-10-01T16:35:18.593Z,12.02
2022-10-01T16:37:48.209Z,5.43
2022-10-01T16:40:16.362Z,6.65
2022-10-01T16:42:44.668Z,8.18
2022-10-01T16:45:22.581Z,6.93
2022-10-01T16:47:49.674Z,7.18
2022-10-01T16:50:18.838Z,7.10
2022-10-01T16:52:45.756Z,5.88
2022-10-01T16:55:20.356Z,5.85
2022-10-01T16:57:47.169Z,6.30
2022-10-01T17:00:15.329Z,9.50
2022-10-01T17:02:42.362Z,6.63
2022-10-01T17:05:26.581Z,7.57
2022-10-01T17:07:54.126Z,7.93
2022-10-01T17:10:23.251Z,6.25
2022-10-01T17:12:53.846Z,6.32
2022-10-01T17:15:23.200Z,7.57
2022-10-01T17:17:49.863Z,5.68
2022-10-01T17:20:16.614Z,7.20
2022-10-01T17:22:43.521Z,8.18
2022-10-01T17:25:18.367Z,8.77
2022-10-01T17:27:45.902Z,7.00
2022-10-01T17:30:12.875Z,12.10
2022-10-01T17:32:40.257Z,13.15
2022-10-01T17:35:07.802Z,8.68
2022-10-01T17:37:34.711Z,8.18
2022-10-01T17:40:01.518Z,9.70
2022-10-01T17:42:28.201Z,9.65
2022-10-01T17:44:54.911Z,9.30
2022-10-01T17:47:25.002Z,9.02
2022-10-01T17:49:51.750Z,7.68
2022-10-01T17:52:18.681Z,9.07
2022-10-01T17:54:45.550Z,8.70
2022-10-01T17:57:12.201Z,8.80
2022-10-01T17:59:39.211Z,8.88
2022-10-01T18:02:18.834Z,11.15
2022-10-01T18:04:53.966Z,9.38
2022-10-01T18:07:20.617Z,8.93
2022-10-01T18:09:47.485Z,12.80
2022-10-01T18:12:14.719Z,10.55
2022-10-01T18:14:41.457Z,8.85
2022-10-01T18:17:08.139Z,9.52
2022-10-01T18:22:29.334Z,11.50
2022-10-01T18:24:56.299Z,15.63
2022-10-01T18:27:23.087Z,9.43
2022-10-01T18:29:49.868Z,13.35
2022-10-01T18:32:23.554Z,10.65
2022-10-01T18:34:59.071Z,10.68
2022-10-01T18:37:49.788Z,11.23
2022-10-01T18:40:21.066Z,10.27
2022-10-01T18:43:09.045Z,14.93
2022-10-01T18:46:07.479Z,12.05
2022-10-01T18:49:14.198Z,14.60
2022-10-01T18:51:52.933Z,14.90
2022-10-01T18:54:45.730Z,11.90
2022-10-01T18:57:47.163Z,13.40
2022-10-01T19:00:20.140Z,15.15
2022-10-01T19:03:24.609Z,14.27
2022-10-01T19:06:21.320Z,11.50
2022-10-01T19:09:23.055Z,7.50
2022-10-01T19:12:13.508Z,13.43
2022-10-01T19:15:10.814Z,12.77
2022-10-01T19:17:56.614Z,14.98
2022-10-01T19:20:29.247Z,13.63
2022-10-01T19:23:20.802Z,13.88
2022-10-01T19:25:57.198Z,13.02
2022-10-01T19:28:35.791Z,13.10
2022-10-01T19:31:29.829Z,10.68
2022-10-01T19:34:05.872Z,13.63
2022-10-01T19:36:37.867Z,13.37
2022-10-01T19:39:10.803Z,13.07
2022-10-01T19:41:48.768Z,12.35
2022-10-01T19:44:40.461Z,12.93
2022-10-01T19:47:40.184Z,10.63
2022-10-01T19:50:25.829Z,14.07
2022-10-01T19:52:57.261Z,11.45
2022-10-01T19:55:25.322Z,12.07
2022-10-01T19:57:52.854Z,19.13
2022-10-01T20:00:22.018Z,14.85
2022-10-01T20:03:17.041Z,11.23
2022-10-01T20:06:09.761Z,13.95
2022-10-01T20:09:02.890Z,11.82
2022-10-01T20:11:35.767Z,13.15
2022-10-01T20:15:00.682Z,11.88
2022-10-01T20:17:40.014Z,14.35
2022-10-01T20:20:16.138Z,15.52
2022-10-01T20:23:06.980Z,15.40
2022-10-01T20:25:48.688Z,10.77
2022-10-01T20:28:52.106Z,13.93
2022-10-01T20:31:22.981Z,13.23
2022-10-01T20:34:05.934Z,12.30
2022-10-01T20:36:46.194Z,15.40
2022-10-01T20:39:25.293Z,13.65
2022-10-01T20:41:54.167Z,11.20
2022-10-01T20:44:25.994Z,14.43
2022-10-01T20:46:59.486Z,10.43
2022-10-01T20:49:32.335Z,13.00
2022-10-01T20:52:22.388Z,13.60
2022-10-01T20:54:53.043Z,10.15
2022-10-01T20:57:32.119Z,12.27
2022-10-01T21:00:23.506Z,14.77
2022-10-01T21:03:11.272Z,13.93
2022-10-01T21:05:43.079Z,11.50
2022-10-01T21:08:28.629Z,14.85
2022-10-01T21:10:59.543Z,18.05
2022-10-01T21:13:40.933Z,13.38
2022-10-01T21:16:26.274Z,17.42
2022-10-01T21:19:38.221Z,10.35
2022-10-01T21:22:32.888Z,7.55
2022-10-01T21:25:16.973Z,14.93
2022-10-01T21:28:10.275Z,15.35
2022-10-01T21:31:08.502Z,16.83
2022-10-01T21:33:53.952Z,9.93
2022-10-01T21:36:34.341Z,15.70
2022-10-01T21:39:18.926Z,15.32
2022-10-01T21:42:01.972Z,11.57
2022-10-01T21:45:06.141Z,13.65
2022-10-01T21:48:12.359Z,16.10
2022-10-01T21:51:09.268Z,17.80
2022-10-01T21:53:50.785Z,17.58
2022-10-01T21:56:45.717Z,12.48
2022-10-01T21:59:31.581Z,14.68
2022-10-01T22:02:08.215Z,14.95
2022-10-01T22:04:40.358Z,13.65
2022-10-01T22:07:28.158Z,12.77
2022-10-01T22:10:08.291Z,14.93
2022-10-01T22:12:40.234Z,14.80
2022-10-01T22:15:29.645Z,15.98
2022-10-01T22:17:57.221Z,15.88
2022-10-01T22:20:30.983Z,19.38
2022-10-01T22:23:01.219Z,16.63
2022-10-01T22:25:30.243Z,13.25
2022-10-01T22:28:06.188Z,16.50
2022-10-01T22:30:37.320Z,11.43
2022-10-01T22:33:22.198Z,21.85
2022-10-01T22:36:03.713Z,18.00
2022-10-01T22:38:40.587Z,13.95
2022-10-01T22:41:17.658Z,19.83
2022-10-01T22:43:45.668Z,14.65
2022-10-01T22:46:40.693Z,14.85
2022-10-01T22:49:32.145Z,17.98
2022-10-01T22:52:27.313Z,18.17
2022-10-01T22:55:09.407Z,19.30
2022-10-01T22:58:00.696Z,17.48
2022-10-01T23:00:28.118Z,14.75
2022-10-01T23:03:02.731Z,19.27
2022-10-01T23:06:07.048Z,15.30
2022-10-01T23:08:54.713Z,16.25
2022-10-01T23:11:54.455Z,15.73
2022-10-01T23:14:53.530Z,16.70
2022-10-01T23:17:39.342Z,14.60
2022-10-01T23:20:29.601Z,20.35
2022-10-01T23:23:14.818Z,12.60
2022-10-01T23:26:06.098Z,16.70
2022-10-01T23:29:02.605Z,17.75
2022-10-01T23:31:53.561Z,15.57
2022-10-01T23:34:34.626Z,13.68
2022-10-01T23:37:21.539Z,16.75
2022-10-01T23:39:54.849Z,13.60
2022-10-01T23:42:55.054Z,12.73
2022-10-01T23:45:36.707Z,14.55
2022-10-01T23:48:29.323Z,19.50
2022-10-01T23:51:07.964Z,18.05
2022-10-01T23:53:43.978Z,15.35
2022-10-01T23:56:36.934Z,12.63
2022-10-01T23:59:09.228Z,15.70
